createdAt,value
2023-04-25T00:00:19.373Z,6.70
2023-04-25T00:02:47.645Z,6.60
2023-04-25T00:05:16.496Z,6.60
2023-04-25T00:07:44.052Z,6.50
2023-04-25T00:10:12.233Z,6.60
2023-04-25T00:12:40.124Z,6.50
2023-04-25T00:15:07.295Z,6.50
2023-04-25T00:17:34.268Z,6.40
2023-04-25T00:20:01.239Z,6.40
2023-04-25T00:22:28.109Z,6.40
2023-04-25T00:24:57.723Z,6.40
2023-04-25T00:27:24.605Z,6.30
2023-04-25T00:29:51.509Z,6.20
2023-04-25T00:32:18.392Z,6.20
2023-04-25T00:34:45.510Z,6.20
2023-04-25T00:37:12.895Z,6.20
2023-04-25T00:39:39.835Z,6.10
2023-04-25T00:42:07.035Z,6.00
2023-04-25T00:44:34.072Z,6.00
2023-04-25T00:47:01.629Z,5.90
2023-04-25T00:49:28.634Z,5.90
2023-04-25T00:51:55.645Z,5.90
2023-04-25T00:54:22.651Z,5.80
2023-04-25T00:56:49.552Z,5.70
2023-04-25T00:59:16.493Z,5.70
2023-04-25T01:01:45.182Z,5.60
2023-04-25T01:04:12.479Z,5.60
2023-04-25T01:06:39.635Z,5.60
2023-04-25T01:09:06.657Z,5.50
2023-04-25T01:11:33.561Z,5.50
2023-04-25T01:14:00.511Z,5.50
2023-04-25T01:16:28.027Z,5.40
2023-04-25T01:18:55.165Z,5.40
2023-04-25T01:21:22.088Z,5.40
2023-04-25T01:23:49.701Z,5.30
2023-04-25T01:26:16.777Z,5.30
2023-04-25T01:28:43.933Z,5.20
2023-04-25T01:31:12.593Z,5.20
2023-04-25T01:33:39.458Z,5.10
2023-04-25T01:36:06.652Z,5.10
2023-04-25T01:38:35.526Z,5.10
2023-04-25T01:41:02.653Z,5.10
2023-04-25T01:43:29.564Z,5.00
2023-04-25T01:45:56.921Z,5.00
2023-04-25T01:48:23.959Z,5.00
2023-04-25T01:50:50.845Z,5.00
2023-04-25T01:53:18.456Z,4.90
2023-04-25T01:55:46.613Z,4.90
2023-04-25T01:58:16.061Z,4.80
2023-04-25T02:01:01.319Z,4.80
2023-04-25T02:03:34.780Z,4.80
2023-04-25T02:06:03.486Z,4.80
2023-04-25T02:08:32.537Z,4.70
2023-04-25T02:10:59.481Z,4.70
2023-04-25T02:13:32.030Z,4.60
2023-04-25T02:16:26.537Z,4.60
2023-04-25T02:18:53.941Z,4.50
2023-04-25T02:21:20.786Z,4.40
2023-04-25T02:23:50.303Z,4.40
2023-04-25T02:26:17.366Z,4.40
2023-04-25T02:28:44.268Z,4.40
2023-04-25T02:31:11.196Z,4.30
2023-04-25T02:33:38.146Z,4.40
2023-04-25T02:36:06.718Z,4.40
2023-04-25T02:38:33.601Z,4.30
2023-04-25T02:41:00.541Z,4.30
2023-04-25T02:43:27.396Z,4.30
2023-04-25T02:45:54.261Z,4.30
2023-04-25T02:48:21.375Z,4.20
2023-04-25T02:50:49.373Z,4.20
2023-04-25T02:53:16.395Z,4.20
2023-04-25T02:55:48.226Z,4.10
2023-04-25T02:58:16.673Z,4.10
2023-04-25T03:00:49.350Z,4.10
2023-04-25T03:03:19.169Z,4.10
2023-04-25T03:05:48.005Z,4.00
2023-04-25T03:08:16.607Z,4.00
2023-04-25T03:10:44.308Z,4.00
2023-04-25T03:13:11.725Z,4.00
2023-04-25T03:15:39.729Z,4.00
2023-04-25T03:18:06.905Z,3.90
2023-04-25T03:20:33.878Z,3.90
2023-04-25T03:23:00.757Z,3.90
2023-04-25T03:25:29.552Z,3.90
2023-04-25T03:27:56.657Z,3.90
2023-04-25T03:30:23.643Z,3.90
2023-04-25T03:32:50.656Z,3.90
2023-04-25T03:35:18.317Z,3.90
2023-04-25T03:37:46.861Z,3.90
2023-04-25T03:40:19.404Z,3.80
2023-04-25T03:43:04.634Z,3.80
2023-04-25T03:45:31.671Z,3.80
2023-04-25T03:47:58.730Z,3.70
2023-04-25T03:50:27.662Z,3.70
2023-04-25T03:52:54.560Z,3.70
2023-04-25T03:55:22.061Z,3.70
2023-04-25T03:57:48.929Z,3.70
2023-04-25T04:00:17.102Z,3.60
2023-04-25T04:02:45.555Z,3.60
2023-04-25T04:05:13.960Z,3.60
2023-04-25T04:07:47.820Z,3.60
2023-04-25T04:10:17.015Z,3.60
2023-04-25T04:12:45.283Z,3.60
2023-04-25T04:15:13.043Z,3.60
2023-04-25T04:17:41.847Z,3.50
2023-04-25T04:20:09.831Z,3.50
2023-04-25T04:22:38.554Z,3.50
2023-04-25T04:25:10.719Z,3.50
2023-04-25T04:27:56.228Z,3.50
2023-04-25T04:30:48.146Z,3.50
2023-04-25T04:33:16.302Z,3.40
2023-04-25T04:35:44.672Z,3.40
2023-04-25T04:38:12.963Z,3.40
2023-04-25T04:40:39.887Z,3.40
2023-04-25T04:43:18.262Z,3.40
2023-04-25T04:46:02.137Z,3.40
2023-04-25T04:48:35.447Z,3.40
2023-04-25T04:51:17.856Z,3.30
2023-04-25T04:54:05.127Z,3.30
2023-04-25T04:56:58.110Z,3.30
2023-04-25T04:59:43.526Z,3.40
2023-04-25T05:02:42.301Z,3.40
2023-04-25T05:05:29.601Z,3.40
2023-04-25T05:08:11.530Z,3.40
2023-04-25T05:10:51.664Z,3.50
2023-04-25T05:13:47.878Z,3.50
2023-04-25T05:16:46.900Z,3.50
2023-04-25T05:19:33.733Z,3.50
2023-04-25T05:22:19.305Z,3.50
2023-04-25T05:25:12.240Z,3.50
2023-04-25T05:28:02.000Z,3.50
2023-04-25T05:30:51.596Z,3.60
2023-04-25T05:33:21.930Z,3.70
2023-04-25T05:35:48.973Z,3.60
2023-04-25T05:38:16.261Z,3.70
2023-04-25T05:41:01.897Z,3.80
2023-04-25T05:43:51.043Z,3.80
2023-04-25T05:46:36.771Z,3.80
2023-04-25T05:49:24.679Z,3.90
2023-04-25T05:51:54.168Z,3.90
2023-04-25T05:54:34.340Z,4.00
2023-04-25T05:57:01.429Z,4.00
2023-04-25T05:59:28.923Z,4.00
2023-04-25T06:01:56.248Z,4.10
2023-04-25T06:04:24.237Z,4.10
2023-04-25T06:06:51.399Z,4.20
2023-04-25T06:09:18.293Z,4.20
2023-04-25T06:11:45.171Z,4.30
2023-04-25T06:14:12.101Z,4.40
2023-04-25T06:16:45.789Z,4.30
2023-04-25T06:19:12.685Z,4.40
2023-04-25T06:21:39.694Z,4.60
2023-04-25T06:24:06.630Z,4.60
2023-04-25T06:26:33.748Z,4.70
2023-04-25T06:29:00.650Z,4.80
2023-04-25T06:31:27.748Z,4.80
2023-04-25T06:33:56.076Z,4.90
2023-04-25T06:36:27.016Z,4.90
2023-04-25T06:38:58.316Z,4.90
2023-04-25T06:41:25.213Z,5.00
2023-04-25T06:43:53.422Z,5.10
2023-04-25T06:46:28.160Z,5.00
2023-04-25T06:48:58.300Z,5.10
2023-04-25T06:51:25.805Z,5.20
2023-04-25T06:53:54.866Z,5.30
2023-04-25T06:56:37.238Z,5.40
2023-04-25T06:59:09.322Z,5.50
2023-04-25T07:01:38.754Z,5.50
2023-04-25T07:04:11.405Z,5.60
2023-04-25T07:06:44.216Z,5.70
2023-04-25T07:09:12.490Z,5.90
2023-04-25T07:11:40.006Z,6.40
2023-04-25T07:14:07.075Z,7.10
2023-04-25T07:16:34.591Z,7.70
2023-04-25T07:19:02.401Z,8.30
2023-04-25T07:21:29.900Z,9.00
2023-04-25T07:23:57.085Z,9.50
2023-04-25T07:26:29.673Z,10.10
2023-04-25T07:29:14.942Z,10.20
2023-04-25T07:31:41.890Z,10.50
2023-04-25T07:34:08.859Z,10.50
2023-04-25T07:36:38.265Z,11.20
2023-04-25T07:39:06.506Z,11.60
2023-04-25T07:41:33.601Z,11.50
2023-04-25T07:44:01.388Z,12.00
2023-04-25T07:46:28.370Z,12.40
2023-04-25T07:48:55.424Z,12.60
2023-04-25T07:51:23.368Z,12.70
2023-04-25T07:53:52.556Z,12.80
2023-04-25T07:56:21.274Z,12.90
2023-04-25T07:58:49.833Z,13.10
2023-04-25T08:01:20.108Z,12.50
2023-04-25T08:03:56.970Z,12.90
2023-04-25T08:06:33.552Z,13.50
2023-04-25T08:09:10.558Z,13.50
2023-04-25T08:11:40.166Z,13.40
2023-04-25T08:14:09.109Z,13.80
2023-04-25T08:16:37.115Z,13.60
2023-04-25T08:19:04.279Z,13.50
2023-04-25T08:21:32.552Z,13.50
2023-04-25T08:24:02.678Z,13.50
2023-04-25T08:26:34.574Z,13.60
2023-04-25T08:29:02.786Z,14.00
2023-04-25T08:31:30.036Z,13.60
2023-04-25T08:34:00.185Z,14.30
2023-04-25T08:36:47.329Z,14.00
2023-04-25T08:39:25.513Z,14.10
2023-04-25T08:42:28.199Z,14.70
2023-04-25T08:44:56.424Z,14.50
2023-04-25T08:47:27.371Z,14.40
2023-04-25T08:49:57.366Z,14.40
2023-04-25T08:52:24.862Z,14.50
2023-04-25T08:54:53.346Z,14.30
2023-04-25T08:57:21.166Z,14.50
2023-04-25T08:59:49.518Z,15.00
2023-04-25T09:02:19.187Z,15.50
2023-04-25T09:04:49.197Z,15.50
2023-04-25T09:07:19.762Z,15.30
2023-04-25T09:09:46.847Z,15.00
2023-04-25T09:12:17.474Z,14.70
2023-04-25T09:14:45.016Z,14.20
2023-04-25T09:17:23.300Z,13.80
2023-04-25T09:19:53.877Z,14.00
2023-04-25T09:22:27.721Z,12.80
2023-04-25T09:24:54.778Z,12.30
2023-04-25T09:27:26.409Z,11.70
2023-04-25T09:30:02.100Z,11.60
2023-04-25T09:32:39.875Z,11.50
2023-04-25T09:35:07.062Z,11.60
2023-04-25T09:37:34.363Z,11.30
2023-04-25T09:40:33.472Z,10.90
2023-04-25T09:43:12.389Z,11.30
2023-04-25T09:45:46.866Z,11.20
2023-04-25T09:48:19.076Z,11.30
2023-04-25T09:51:04.825Z,11.50
2023-04-25T09:53:33.295Z,11.10
2023-04-25T09:56:22.690Z,10.80
2023-04-25T09:58:50.102Z,10.80
2023-04-25T10:01:17.272Z,10.60
2023-04-25T10:03:57.856Z,10.40
2023-04-25T10:06:41.229Z,10.30
2023-04-25T10:09:09.089Z,10.60
2023-04-25T10:11:37.051Z,11.10
2023-04-25T10:14:03.905Z,11.20
2023-04-25T10:16:31.528Z,11.40
2023-04-25T10:18:58.626Z,11.70
2023-04-25T10:21:25.561Z,11.80
2023-04-25T10:23:52.804Z,11.80
2023-04-25T10:26:20.020Z,11.50
2023-04-25T10:29:00.006Z,11.50
2023-04-25T10:31:27.085Z,11.70
2023-04-25T10:33:54.246Z,11.90
2023-04-25T10:36:24.472Z,11.50
2023-04-25T10:38:52.003Z,11.60
2023-04-25T10:41:20.056Z,11.60
2023-04-25T10:43:47.372Z,11.90
2023-04-25T10:46:14.405Z,12.00
2023-04-25T10:48:44.940Z,12.30
2023-04-25T10:51:12.223Z,12.30
2023-04-25T10:53:39.073Z,12.60
2023-04-25T10:56:12.592Z,12.50
2023-04-25T10:58:45.033Z,12.40
2023-04-25T11:01:13.062Z,12.30
2023-04-25T11:03:44.443Z,12.60
2023-04-25T11:06:24.784Z,12.80
2023-04-25T11:08:52.345Z,13.10
2023-04-25T11:11:19.955Z,12.90
2023-04-25T11:13:50.736Z,12.80
2023-04-25T11:16:26.899Z,12.50
2023-04-25T11:18:54.914Z,12.30
2023-04-25T11:21:21.924Z,12.60
2023-04-25T11:23:48.980Z,12.50
2023-04-25T11:26:16.494Z,12.70
2023-04-25T11:28:46.034Z,12.60
2023-04-25T11:31:12.955Z,12.00
2023-04-25T11:33:41.937Z,12.10
2023-04-25T11:36:08.933Z,12.10
2023-04-25T11:38:35.849Z,12.00
2023-04-25T11:41:02.797Z,11.90
2023-04-25T11:43:29.668Z,11.90
2023-04-25T11:45:56.779Z,12.10
2023-04-25T11:48:26.100Z,11.90
2023-04-25T11:50:54.724Z,11.80
2023-04-25T11:53:21.730Z,12.00
2023-04-25T11:55:48.968Z,12.30
2023-04-25T11:58:16.475Z,12.50
2023-04-25T12:00:50.354Z,12.70
2023-04-25T12:03:18.695Z,12.70
2023-04-25T12:05:46.148Z,12.00
2023-04-25T12:08:16.527Z,11.80
2023-04-25T12:10:44.260Z,11.70
2023-04-25T12:13:24.328Z,11.60
2023-04-25T12:15:51.476Z,11.50
2023-04-25T12:18:22.378Z,11.80
2023-04-25T12:22:47.863Z,12.20
2023-04-25T12:25:34.607Z,12.60
2023-04-25T12:28:32.979Z,12.60
2023-04-25T12:31:06.509Z,12.60
2023-04-25T12:33:37.350Z,12.60
2023-04-25T12:36:09.588Z,12.50
2023-04-25T12:38:40.796Z,12.70
2023-04-25T12:41:07.883Z,12.80
2023-04-25T12:43:34.876Z,12.90
2023-04-25T12:46:01.827Z,13.20
2023-04-25T12:48:28.865Z,12.90
2023-04-25T12:50:55.883Z,12.80
2023-04-25T12:53:23.853Z,12.70
2023-04-25T12:55:51.073Z,12.50
2023-04-25T12:58:18.975Z,12.40
2023-04-25T13:00:46.213Z,12.20
2023-04-25T13:03:13.818Z,12.10
2023-04-25T13:05:41.190Z,12.20
2023-04-25T13:08:08.200Z,12.60
2023-04-25T13:10:35.208Z,12.60
2023-04-25T13:13:02.554Z,12.80
2023-04-25T13:15:29.515Z,13.10
2023-04-25T13:17:57.305Z,13.40
2023-04-25T13:20:24.486Z,13.50
2023-04-25T13:22:51.490Z,13.40
2023-04-25T13:25:18.524Z,13.10
2023-04-25T13:27:45.965Z,12.90
2023-04-25T13:30:13.280Z,12.70
2023-04-25T13:32:40.287Z,12.70
2023-04-25T13:35:11.141Z,12.40
2023-04-25T13:37:38.834Z,12.40
2023-04-25T13:40:11.246Z,12.50
2023-04-25T13:42:38.678Z,12.50
2023-04-25T13:45:06.052Z,12.70
2023-04-25T13:47:33.252Z,12.80
2023-04-25T13:50:00.566Z,12.70
2023-04-25T13:52:28.435Z,12.50
2023-04-25T13:54:55.474Z,12.40
2023-04-25T13:57:22.493Z,12.40
2023-04-25T13:59:49.445Z,12.40
2023-04-25T14:02:16.702Z,12.50
2023-04-25T14:04:43.919Z,12.70
2023-04-25T14:07:12.151Z,12.90
2023-04-25T14:09:39.069Z,13.00
2023-04-25T14:12:07.143Z,13.00
2023-04-25T14:14:34.203Z,13.10
2023-04-25T14:17:01.208Z,13.20
2023-04-25T14:19:28.875Z,13.30
2023-04-25T14:21:56.102Z,13.20
2023-04-25T14:24:23.112Z,13.10
2023-04-25T14:26:50.103Z,13.10
2023-04-25T14:29:17.047Z,12.80
2023-04-25T14:31:44.054Z,12.60
2023-04-25T14:34:11.725Z,12.80
2023-04-25T14:36:38.657Z,12.70
2023-04-25T14:39:08.431Z,12.80
2023-04-25T14:41:35.472Z,12.90
2023-04-25T14:44:02.557Z,12.70
2023-04-25T14:46:29.828Z,12.60
2023-04-25T14:48:57.395Z,12.60
2023-04-25T14:51:24.429Z,12.50
2023-04-25T14:53:52.338Z,12.60
2023-04-25T14:56:20.000Z,12.70
2023-04-25T14:58:47.365Z,12.60
2023-04-25T15:01:15.035Z,12.60
2023-04-25T15:03:42.477Z,12.50
2023-04-25T15:06:09.811Z,12.40
2023-04-25T15:08:37.263Z,12.50
2023-04-25T15:11:04.394Z,12.50
2023-04-25T15:13:31.694Z,12.50
2023-04-25T15:15:58.712Z,12.60
2023-04-25T15:18:25.976Z,12.70
2023-04-25T15:20:53.339Z,12.80
2023-04-25T15:23:21.032Z,12.80
2023-04-25T15:25:48.441Z,12.80
2023-04-25T15:28:17.041Z,12.80
2023-04-25T15:30:44.755Z,13.00
2023-04-25T15:33:11.845Z,13.00
2023-04-25T15:35:38.957Z,13.20
2023-04-25T15:38:06.733Z,13.10
2023-04-25T15:40:33.690Z,13.10
2023-04-25T15:43:00.755Z,13.00
2023-04-25T15:45:28.139Z,12.90
2023-04-25T15:47:56.150Z,12.90
2023-04-25T15:50:23.305Z,12.80
2023-04-25T15:52:50.664Z,12.60
2023-04-25T15:55:18.755Z,12.60
2023-04-25T15:57:45.728Z,12.40
2023-04-25T16:00:13.665Z,12.40
2023-04-25T16:02:41.017Z,12.20
2023-04-25T16:05:09.289Z,12.30
2023-04-25T16:07:36.483Z,12.50
2023-04-25T16:10:03.926Z,12.40
2023-04-25T16:12:31.307Z,12.30
2023-04-25T16:14:58.478Z,12.10
2023-04-25T16:17:26.157Z,12.10
2023-04-25T16:19:53.114Z,12.00
2023-04-25T16:22:20.124Z,12.10
2023-04-25T16:24:47.163Z,12.20
2023-04-25T16:27:14.187Z,12.30
2023-04-25T16:29:41.431Z,12.30
2023-04-25T16:32:08.412Z,12.40
2023-04-25T16:34:35.404Z,12.30
2023-04-25T16:37:02.494Z,12.30
2023-04-25T16:39:29.598Z,12.30
2023-04-25T16:41:56.538Z,12.30
2023-04-25T16:44:23.505Z,12.30
2023-04-25T16:46:50.891Z,12.20
2023-04-25T16:49:17.945Z,12.20
2023-04-25T16:51:46.559Z,12.30
2023-04-25T16:54:13.652Z,12.40
2023-04-25T16:56:41.853Z,12.40
2023-04-25T16:59:08.884Z,12.30
2023-04-25T17:01:36.489Z,12.10
2023-04-25T17:04:03.544Z,12.10
2023-04-25T17:06:30.767Z,12.10
2023-04-25T17:08:57.781Z,11.90
2023-04-25T17:11:24.745Z,11.80
2023-04-25T17:13:51.797Z,11.70
2023-04-25T17:16:23.066Z,11.90
2023-04-25T17:18:53.629Z,12.00
2023-04-25T17:21:20.833Z,12.00
2023-04-25T17:23:47.832Z,12.00
2023-04-25T17:26:15.211Z,12.00
2023-04-25T17:28:45.160Z,12.00
2023-04-25T17:31:12.426Z,11.90
2023-04-25T17:33:39.495Z,11.90
2023-04-25T17:36:07.486Z,11.90
2023-04-25T17:38:35.848Z,11.90
2023-04-25T17:41:03.400Z,11.90
2023-04-25T17:43:31.629Z,11.80
2023-04-25T17:45:58.850Z,11.90
2023-04-25T17:48:26.922Z,11.80
2023-04-25T17:50:53.892Z,11.80
2023-04-25T17:53:20.882Z,11.80
2023-04-25T17:55:50.581Z,11.60
2023-04-25T17:58:17.785Z,11.60
2023-04-25T18:00:44.758Z,11.60
2023-04-25T18:03:12.202Z,11.50
2023-04-25T18:05:39.222Z,11.50
2023-04-25T18:08:06.994Z,11.50
2023-04-25T18:10:34.493Z,11.50
2023-04-25T18:13:01.418Z,11.40
2023-04-25T18:15:28.979Z,11.30
2023-04-25T18:17:58.187Z,11.20
2023-04-25T18:20:25.918Z,11.20
2023-04-25T18:22:52.975Z,11.00
2023-04-25T18:25:19.912Z,11.00
2023-04-25T18:27:46.902Z,10.80
2023-04-25T18:30:14.128Z,10.80
2023-04-25T18:32:41.128Z,10.70
2023-04-25T18:35:10.320Z,10.70
2023-04-25T18:37:37.976Z,10.70
2023-04-25T18:40:08.831Z,10.60
2023-04-25T18:42:38.014Z,10.50
2023-04-25T18:45:05.695Z,10.40
2023-04-25T18:47:32.796Z,10.40
2023-04-25T18:49:59.832Z,10.30
2023-04-25T18:52:26.958Z,10.20
2023-04-25T18:54:53.948Z,10.10
2023-04-25T18:57:21.266Z,10.00
2023-04-25T18:59:48.309Z,9.90
2023-04-25T19:02:16.745Z,9.90
2023-04-25T19:04:44.064Z,9.80
2023-04-25T19:07:11.378Z,9.70
2023-04-25T19:09:38.381Z,9.70
2023-04-25T19:12:05.579Z,9.60
2023-04-25T19:14:33.038Z,9.50
2023-04-25T19:17:00.452Z,9.50
2023-04-25T19:19:27.799Z,9.40
2023-04-25T19:21:54.816Z,9.40
2023-04-25T19:24:22.326Z,9.30
2023-04-25T19:26:49.304Z,9.20
2023-04-25T19:32:03.169Z,9.10
2023-04-25T19:34:30.203Z,9.00
2023-04-25T19:36:57.183Z,8.90
2023-04-25T19:39:24.152Z,8.80
2023-04-25T19:41:51.140Z,8.80
2023-04-25T19:44:18.331Z,8.70
2023-04-25T19:46:46.854Z,8.60
2023-04-25T19:49:13.978Z,8.60
2023-04-25T19:51:41.131Z,8.50
2023-04-25T19:54:08.106Z,8.50
2023-04-25T19:56:35.131Z,8.50
2023-04-25T19:59:02.258Z,8.40
2023-04-25T20:01:29.574Z,8.30
2023-04-25T20:03:56.819Z,8.30
2023-04-25T20:06:24.063Z,8.20
2023-04-25T20:08:53.434Z,8.10
2023-04-25T20:11:21.647Z,8.00
2023-04-25T20:13:48.682Z,8.00
2023-04-25T20:16:20.434Z,7.90
2023-04-25T20:18:48.709Z,7.90
2023-04-25T20:21:17.088Z,7.80
2023-04-25T20:23:44.261Z,7.80
2023-04-25T20:26:12.913Z,7.70
2023-04-25T20:28:39.954Z,7.70
2023-04-25T20:31:06.941Z,7.70
2023-04-25T20:33:35.354Z,7.60
2023-04-25T20:36:02.295Z,7.60
2023-04-25T20:38:29.288Z,7.60
2023-04-25T20:40:56.581Z,7.60
2023-04-25T20:43:23.715Z,7.60
2023-04-25T20:45:51.002Z,7.50
2023-04-25T20:48:18.088Z,7.50
2023-04-25T20:50:45.086Z,7.50
2023-04-25T20:53:12.296Z,7.50
2023-04-25T20:55:41.686Z,7.50
2023-04-25T20:58:08.786Z,7.40
2023-04-25T21:00:35.796Z,7.40
2023-04-25T21:03:05.250Z,7.40
2023-04-25T21:05:32.437Z,7.40
2023-04-25T21:07:59.425Z,7.30
2023-04-25T21:10:26.370Z,7.30
2023-04-25T21:12:54.230Z,7.20
2023-04-25T21:15:21.611Z,7.20
2023-04-25T21:17:49.583Z,7.20
2023-04-25T21:20:18.225Z,7.10
2023-04-25T21:22:54.029Z,7.10
2023-04-25T21:25:25.568Z,7.00
2023-04-25T21:27:53.163Z,7.00
2023-04-25T21:30:23.369Z,7.00
2023-04-25T21:32:53.801Z,6.90
2023-04-25T21:35:21.108Z,6.90
2023-04-25T21:37:48.227Z,6.70
2023-04-25T21:40:15.391Z,6.70
2023-04-25T21:42:44.753Z,6.70
2023-04-25T21:45:12.221Z,6.70
2023-04-25T21:47:39.419Z,6.70
2023-04-25T21:50:07.619Z,6.60
2023-04-25T21:52:35.883Z,6.60
2023-04-25T21:55:02.842Z,6.40
2023-04-25T21:57:29.794Z,6.40
2023-04-25T21:59:56.919Z,6.40
2023-04-25T22:02:24.809Z,6.40
2023-04-25T22:04:52.648Z,6.40
2023-04-25T22:07:19.976Z,6.30
2023-04-25T22:09:54.422Z,6.30
2023-04-25T22:12:23.542Z,6.30
2023-04-25T22:14:50.986Z,6.20
2023-04-25T22:17:19.041Z,6.20
2023-04-25T22:19:46.737Z,6.10
2023-04-25T22:22:13.792Z,6.10
2023-04-25T22:24:41.094Z,6.10
2023-04-25T22:27:08.122Z,6.10
2023-04-25T22:29:35.340Z,6.10
2023-04-25T22:32:02.646Z,6.10
2023-04-25T22:34:29.616Z,6.10
2023-04-25T22:36:56.613Z,6.10
2023-04-25T22:39:23.705Z,6.10
2023-04-25T22:41:50.768Z,6.10
2023-04-25T22:44:18.032Z,6.10
2023-04-25T22:46:45.049Z,6.10
2023-04-25T22:49:12.203Z,6.00
2023-04-25T22:51:39.203Z,6.00
2023-04-25T22:54:06.309Z,6.00
2023-04-25T22:56:33.309Z,6.00
2023-04-25T22:59:00.320Z,5.90
2023-04-25T23:01:29.146Z,5.80
2023-04-25T23:03:56.890Z,5.80
2023-04-25T23:06:24.918Z,5.80
2023-04-25T23:08:52.082Z,5.70
2023-04-25T23:11:20.539Z,5.70
2023-04-25T23:13:47.615Z,5.70
2023-04-25T23:16:14.561Z,5.60
2023-04-25T23:18:41.570Z,5.60
2023-04-25T23:21:09.284Z,5.60
2023-04-25T23:23:36.649Z,5.60
2023-04-25T23:26:13.032Z,5.50
2023-04-25T23:28:48.912Z,5.40
2023-04-25T23:31:16.071Z,5.30
2023-04-25T23:33:43.064Z,5.30
2023-04-25T23:36:21.490Z,5.30
2023-04-25T23:38:48.814Z,5.20
2023-04-25T23:41:15.894Z,5.20
2023-04-25T23:43:42.887Z,5.20
2023-04-25T23:46:09.924Z,5.10
2023-04-25T23:48:36.937Z,5.10
2023-04-25T23:51:03.971Z,5.00
2023-04-25T23:53:31.165Z,4.90
2023-04-25T23:55:58.251Z,4.90
2023-04-25T23:58:25.250Z,5.00
